createdAt,value
2022-11-01T00:02:13.714Z,100688.81
2022-11-01T00:04:40.707Z,100695.94
2022-11-01T00:07:07.637Z,100692.22
2022-11-01T00:09:34.765Z,100694.94
2022-11-01T00:12:02.193Z,100685.53
2022-11-01T00:14:29.159Z,100686.25
2022-11-01T00:16:56.164Z,100684.41
2022-11-01T00:19:23.243Z,100688.69
2022-11-01T00:21:50.467Z,100691.38
2022-11-01T00:24:17.430Z,100686.97
2022-11-01T00:26:44.617Z,100689.66
2022-11-01T00:29:12.479Z,100684.25
2022-11-01T00:31:39.645Z,100677.84
2022-11-01T00:34:06.961Z,100674.16
2022-11-01T00:36:34.898Z,100667.59
2022-11-01T00:39:02.714Z,100665.88
2022-11-01T00:41:29.754Z,100669.56
2022-11-01T00:43:56.662Z,100677.84
2022-11-01T00:46:23.778Z,100670.72
2022-11-01T00:48:50.752Z,100669.00
2022-11-01T00:51:17.849Z,100662.03
2022-11-01T00:53:44.798Z,100654.88
2022-11-01T00:56:11.920Z,100650.63
2022-11-01T00:58:38.793Z,100644.47
2022-11-01T01:01:06.231Z,100653.75
2022-11-01T01:03:33.251Z,100648.34
2022-11-01T01:06:00.228Z,100644.06
2022-11-01T01:08:27.483Z,100646.78
2022-11-01T01:10:54.575Z,100630.66
2022-11-01T01:13:22.144Z,100635.78
2022-11-01T01:15:49.370Z,100631.53
2022-11-01T01:18:16.896Z,100631.53
2022-11-01T01:20:44.587Z,100627.25
2022-11-01T01:23:11.558Z,100623.66
2022-11-01T01:25:42.630Z,100628.94
2022-11-01T01:28:10.235Z,100626.38
2022-11-01T01:30:41.241Z,100623.09
2022-11-01T01:33:09.848Z,100611.56
2022-11-01T01:35:39.257Z,100615.41
2022-11-01T01:38:07.575Z,100613.84
2022-11-01T01:40:35.572Z,100600.56
2022-11-01T01:43:02.881Z,100601.56
2022-11-01T01:45:34.573Z,100595.47
2022-11-01T01:48:16.598Z,100594.59
2022-11-01T01:50:55.696Z,100598.28
2022-11-01T01:53:37.281Z,100586.91
2022-11-01T01:56:11.978Z,100584.34
2022-11-01T01:58:52.405Z,100582.63
2022-11-01T02:01:19.592Z,100572.91
2022-11-01T02:03:47.825Z,100562.84
2022-11-01T02:06:21.052Z,100558.28
2022-11-01T02:08:58.132Z,100553.03
2022-11-01T02:11:25.290Z,100558.50
2022-11-01T02:13:52.659Z,100557.69
2022-11-01T02:16:52.906Z,100573.66
2022-11-01T02:19:59.715Z,100576.78
2022-11-01T02:23:03.179Z,100570.25
2022-11-01T02:26:01.237Z,100574.09
2022-11-01T02:29:05.938Z,100558.72
2022-11-01T02:31:55.190Z,100557.72
2022-11-01T02:34:39.780Z,100564.25
2022-11-01T02:37:25.302Z,100570.09
2022-11-01T02:40:00.882Z,100558.81
2022-11-01T02:42:43.350Z,100559.41
2022-11-01T02:45:30.059Z,100534.72
2022-11-01T02:48:01.484Z,100544.41
2022-11-01T02:50:44.662Z,100521.91
2022-11-01T02:53:13.006Z,100517.47
2022-11-01T02:55:40.153Z,100520.19
2022-11-01T02:58:16.802Z,100520.03
2022-11-01T03:00:45.798Z,100525.59
2022-11-01T03:03:33.706Z,100519.19
2022-11-01T03:06:00.606Z,100528.88
2022-11-01T03:08:40.456Z,100523.16
2022-11-01T03:11:22.172Z,100515.59
2022-11-01T03:13:57.891Z,100509.19
2022-11-01T03:16:51.168Z,100511.91
2022-11-01T03:19:50.995Z,100514.28
2022-11-01T03:22:48.895Z,100520.44
2022-11-01T03:25:40.182Z,100524.69
2022-11-01T03:28:28.739Z,100520.16
2022-11-01T03:31:12.972Z,100519.16
2022-11-01T03:33:48.904Z,100531.53
2022-11-01T03:36:20.153Z,100522.41
2022-11-01T03:38:59.700Z,100522.25
2022-11-01T03:41:29.154Z,100525.81
2022-11-01T03:43:56.535Z,100535.66
2022-11-01T03:46:23.772Z,100532.50
2022-11-01T03:48:50.849Z,100532.38
2022-11-01T03:51:18.205Z,100525.91
2022-11-01T03:53:45.090Z,100525.09
2022-11-01T03:56:12.465Z,100536.75
2022-11-01T03:58:42.119Z,100532.38
2022-11-01T04:01:12.417Z,100535.91
2022-11-01T04:03:39.831Z,100533.06
2022-11-01T04:06:07.514Z,100532.06
2022-11-01T04:08:36.810Z,100535.47
2022-11-01T04:11:04.947Z,100528.91
2022-11-01T04:13:32.035Z,100531.63
2022-11-01T04:16:18.105Z,100534.16
2022-11-01T04:19:14.197Z,100536.59
2022-11-01T04:21:41.781Z,100544.28
2022-11-01T04:24:09.793Z,100539.56
2022-11-01T04:26:37.281Z,100544.66
2022-11-01T04:29:04.297Z,100541.97
2022-11-01T04:31:36.743Z,100542.69
2022-11-01T04:34:05.648Z,100540.69
2022-11-01T04:36:32.850Z,100537.25
2022-11-01T04:38:59.994Z,100544.38
2022-11-01T04:41:29.144Z,100544.22
2022-11-01T04:43:58.986Z,100534.38
2022-11-01T04:46:29.423Z,100542.38
2022-11-01T04:48:56.552Z,100545.09
2022-11-01T04:51:23.455Z,100539.53
2022-11-01T04:53:50.374Z,100542.06
2022-11-01T04:56:17.336Z,100542.81
2022-11-01T04:58:46.418Z,100545.41
2022-11-01T05:01:15.049Z,100545.25
2022-11-01T05:03:43.013Z,100545.97
2022-11-01T05:06:10.236Z,100544.91
2022-11-01T05:08:37.490Z,100533.22
2022-11-01T05:11:04.613Z,100542.22
2022-11-01T05:13:32.080Z,100539.50
2022-11-01T05:18:49.467Z,100551.16
2022-11-01T05:21:17.880Z,100557.84
2022-11-01T05:23:47.486Z,100553.84
2022-11-01T05:26:14.518Z,100562.53
2022-11-01T05:28:41.687Z,100557.78
2022-11-01T05:31:08.594Z,100564.09
2022-11-01T05:33:35.533Z,100564.09
2022-11-01T05:36:02.499Z,100564.09
2022-11-01T05:38:29.511Z,100565.91
2022-11-01T05:40:56.475Z,100572.34
2022-11-01T05:43:23.853Z,100571.13
2022-11-01T05:45:51.320Z,100566.38
2022-11-01T05:48:18.415Z,100577.38
2022-11-01T05:50:46.840Z,100576.53
2022-11-01T05:53:14.079Z,100580.81
2022-11-01T05:55:41.392Z,100577.66
2022-11-01T05:58:09.277Z,100574.06
2022-11-01T06:00:36.340Z,100575.94
2022-11-01T06:03:04.771Z,100578.47
2022-11-01T06:05:32.434Z,100583.06
2022-11-01T06:08:02.067Z,100592.03
2022-11-01T06:10:28.993Z,100585.63
2022-11-01T06:12:56.301Z,100592.75
2022-11-01T06:15:23.785Z,100588.16
2022-11-01T06:17:58.487Z,100592.47
2022-11-01T06:20:27.583Z,100589.44
2022-11-01T06:22:54.479Z,100600.16
2022-11-01T06:25:22.344Z,100606.44
2022-11-01T06:27:49.519Z,100608.44
2022-11-01T06:30:16.561Z,100605.88
2022-11-01T06:32:43.705Z,100611.84
2022-11-01T06:35:11.824Z,100619.53
2022-11-01T06:37:41.742Z,100618.22
2022-11-01T06:40:09.660Z,100616.94
2022-11-01T06:42:36.653Z,100609.50
2022-11-01T06:45:03.961Z,100619.91
2022-11-01T06:47:31.153Z,100629.97
2022-11-01T06:49:58.124Z,100630.25
2022-11-01T06:52:25.133Z,100631.34
2022-11-01T06:54:52.137Z,100636.13
2022-11-01T06:57:19.158Z,100653.84
2022-11-01T06:59:46.566Z,100653.53
2022-11-01T07:02:14.704Z,100655.25
2022-11-01T07:04:42.044Z,100656.13
2022-11-01T07:07:08.958Z,100656.94
2022-11-01T07:09:36.142Z,100655.78
2022-11-01T07:12:03.032Z,100658.38
2022-11-01T07:14:31.124Z,100664.50
2022-11-01T07:16:58.254Z,100667.94
2022-11-01T07:19:25.362Z,100674.91
2022-11-01T07:21:52.746Z,100668.72
2022-11-01T07:24:19.971Z,100678.97
2022-11-01T07:26:47.707Z,100689.09
2022-11-01T07:29:14.865Z,100686.63
2022-11-01T07:31:42.036Z,100699.25
2022-11-01T07:34:09.129Z,100693.22
2022-11-01T07:36:36.066Z,100694.59
2022-11-01T07:39:03.850Z,100701.81
2022-11-01T07:41:31.014Z,100705.94
2022-11-01T07:43:58.149Z,100704.06
2022-11-01T07:46:25.065Z,100712.47
2022-11-01T07:48:52.243Z,100713.84
2022-11-01T07:51:19.265Z,100711.00
2022-11-01T07:53:46.566Z,100712.53
2022-11-01T07:56:13.651Z,100710.53
2022-11-01T07:58:43.517Z,100721.06
2022-11-01T08:01:11.363Z,100718.06
2022-11-01T08:03:38.606Z,100718.75
2022-11-01T08:06:05.946Z,100718.59
2022-11-01T08:08:33.064Z,100724.72
2022-11-01T08:11:01.517Z,100726.28
2022-11-01T08:13:29.652Z,100724.09
2022-11-01T08:15:57.027Z,100723.66
2022-11-01T08:18:24.529Z,100735.06
2022-11-01T08:20:52.062Z,100739.34
2022-11-01T08:23:19.362Z,100748.91
2022-11-01T08:25:46.345Z,100755.19
2022-11-01T08:28:19.386Z,100750.59
2022-11-01T08:30:50.996Z,100761.34
2022-11-01T08:33:18.238Z,100764.91
2022-11-01T08:35:50.054Z,100769.63
2022-11-01T08:38:17.969Z,100780.84
2022-11-01T08:40:44.934Z,100773.16
2022-11-01T08:43:11.897Z,100787.94
2022-11-01T08:45:39.124Z,100785.78
2022-11-01T08:48:06.649Z,100804.81
2022-11-01T08:50:34.671Z,100817.75
2022-11-01T08:53:13.745Z,100813.78
2022-11-01T08:55:41.838Z,100815.41
2022-11-01T08:58:09.717Z,100817.59
2022-11-01T09:00:37.217Z,100826.97
2022-11-01T09:03:04.378Z,100824.88
2022-11-01T09:05:31.672Z,100838.53
2022-11-01T09:08:02.455Z,100831.94
2022-11-01T09:10:30.971Z,100837.03
2022-11-01T09:13:02.377Z,100837.53
2022-11-01T09:15:30.407Z,100833.91
2022-11-01T09:17:57.410Z,100843.56
2022-11-01T09:20:24.397Z,100848.03
2022-11-01T09:22:55.061Z,100851.81
2022-11-01T09:25:22.112Z,100849.81
2022-11-01T09:27:48.997Z,100856.94
2022-11-01T09:30:16.010Z,100856.09
2022-11-01T09:32:42.873Z,100871.91
2022-11-01T09:35:10.142Z,100877.16
2022-11-01T09:37:37.200Z,100876.41
2022-11-01T09:40:06.508Z,100863.00
2022-11-01T09:42:43.801Z,100862.84
2022-11-01T09:45:23.753Z,100871.00
2022-11-01T09:47:54.864Z,100883.44
2022-11-01T09:50:27.858Z,100871.16
2022-11-01T09:52:56.796Z,100883.41
2022-11-01T09:55:46.149Z,100892.13
2022-11-01T09:58:42.084Z,100906.50
2022-11-01T10:02:15.352Z,100915.75
2022-11-01T10:05:03.910Z,100905.31
2022-11-01T10:07:49.143Z,100907.69
2022-11-01T10:10:52.766Z,100897.84
2022-11-01T10:14:09.796Z,100917.81
2022-11-01T10:16:43.176Z,100917.13
2022-11-01T10:19:18.949Z,100927.44
2022-11-01T10:21:51.208Z,100917.94
2022-11-01T10:24:40.243Z,100922.59
2022-11-01T10:27:52.332Z,100914.53
2022-11-01T10:30:20.185Z,100936.69
2022-11-01T10:33:40.233Z,100929.53
2022-11-01T10:36:27.215Z,100941.28
2022-11-01T10:42:23.019Z,100945.94
2022-11-01T10:44:55.370Z,100937.44
2022-11-01T10:47:25.085Z,100943.53
2022-11-01T10:50:11.225Z,100945.25
2022-11-01T10:53:01.823Z,100960.75
2022-11-01T10:55:52.548Z,100961.25
2022-11-01T10:58:47.297Z,100948.69
2022-11-01T11:01:27.588Z,100963.06
2022-11-01T11:04:01.137Z,100966.13
2022-11-01T11:06:28.361Z,100965.25
2022-11-01T11:08:56.694Z,100967.69
2022-11-01T11:11:45.511Z,100970.44
2022-11-01T11:14:14.353Z,100970.78
2022-11-01T11:16:50.871Z,100976.72
2022-11-01T11:19:38.799Z,100981.03
2022-11-01T11:22:08.689Z,100982.53
2022-11-01T11:24:44.280Z,100975.72
2022-11-01T11:27:21.939Z,100987.88
2022-11-01T11:30:22.717Z,100975.38
2022-11-01T11:32:50.450Z,100981.72
2022-11-01T11:35:21.017Z,100979.91
2022-11-01T11:37:57.684Z,100974.91
2022-11-01T11:40:27.848Z,100981.97
2022-11-01T11:43:19.003Z,100993.59
2022-11-01T11:46:24.616Z,100978.72
2022-11-01T11:48:53.053Z,100990.81
2022-11-01T11:51:21.654Z,100981.59
2022-11-01T11:54:06.851Z,101001.03
2022-11-01T11:56:34.007Z,100983.88
2022-11-01T11:59:25.935Z,100990.47
2022-11-01T12:02:00.611Z,100974.25
2022-11-01T12:04:42.381Z,100983.44
2022-11-01T12:07:24.939Z,100980.56
2022-11-01T12:09:51.990Z,100990.31
2022-11-01T12:12:54.343Z,100983.56
2022-11-01T12:15:35.784Z,100984.56
2022-11-01T12:18:16.103Z,100990.06
2022-11-01T12:20:50.143Z,100992.19
2022-11-01T12:23:36.103Z,100978.34
2022-11-01T12:26:13.965Z,100971.66
2022-11-01T12:28:53.361Z,100975.78
2022-11-01T12:31:21.973Z,100973.50
2022-11-01T12:34:06.405Z,100980.66
2022-11-01T12:37:04.657Z,100977.34
2022-11-01T12:39:44.000Z,100977.97
2022-11-01T12:42:20.845Z,100987.50
2022-11-01T12:44:51.813Z,100981.78
2022-11-01T12:47:27.941Z,100993.66
2022-11-01T12:50:07.531Z,100986.16
2022-11-01T12:52:42.368Z,100991.66
2022-11-01T12:55:14.250Z,100992.88
2022-11-01T12:57:44.659Z,101014.00
2022-11-01T13:00:17.507Z,101004.44
2022-11-01T13:03:12.525Z,100994.03
2022-11-01T13:06:29.300Z,100997.31
2022-11-01T13:09:13.058Z,100999.56
2022-11-01T13:11:54.916Z,101003.31
2022-11-01T13:14:33.159Z,100990.81
2022-11-01T13:17:27.983Z,101006.50
2022-11-01T13:20:24.848Z,101010.97
2022-11-01T13:23:21.860Z,100998.66
2022-11-01T13:25:57.523Z,101008.91
2022-11-01T13:31:45.103Z,101004.38
2022-11-01T13:34:28.941Z,101011.09
2022-11-01T13:37:22.110Z,101008.09
2022-11-01T13:40:32.426Z,101018.19
2022-11-01T13:43:14.587Z,101009.47
2022-11-01T13:46:18.511Z,101015.28
2022-11-01T13:49:09.733Z,101019.91
2022-11-01T13:51:48.362Z,101026.56
2022-11-01T13:54:27.326Z,101035.03
2022-11-01T13:57:13.065Z,101033.44
2022-11-01T13:59:44.349Z,101034.28
2022-11-01T14:02:25.959Z,101045.88
2022-11-01T14:05:10.960Z,101036.00
2022-11-01T14:07:44.135Z,101031.47
2022-11-01T14:10:31.156Z,101043.44
2022-11-01T14:13:10.865Z,101033.03
2022-11-01T14:16:00.416Z,101036.63
2022-11-01T14:18:27.620Z,101033.22
2022-11-01T14:20:56.301Z,101033.22
2022-11-01T14:23:29.130Z,101029.31
2022-11-01T14:26:21.122Z,101032.69
2022-11-01T14:28:51.311Z,101040.88
2022-11-01T14:31:26.036Z,101040.72
2022-11-01T14:33:59.051Z,101030.63
2022-11-01T14:36:32.306Z,101042.03
2022-11-01T14:39:12.990Z,101023.75
2022-11-01T14:41:41.090Z,101026.47
2022-11-01T14:44:49.626Z,101031.56
2022-11-01T14:47:40.864Z,101029.13
2022-11-01T14:50:54.030Z,101033.94
2022-11-01T14:53:28.290Z,101029.63
2022-11-01T14:56:07.057Z,101039.75
2022-11-01T14:58:34.267Z,101037.00
2022-11-01T15:01:10.604Z,101053.28
2022-11-01T15:03:37.750Z,101044.81
2022-11-01T15:06:23.011Z,101046.28
2022-11-01T15:08:50.120Z,101049.41
2022-11-01T15:11:17.665Z,101049.66
2022-11-01T15:13:46.088Z,101054.72
2022-11-01T15:16:24.014Z,101056.97
2022-11-01T15:19:03.466Z,101047.31
2022-11-01T15:21:34.166Z,101055.41
2022-11-01T15:24:03.045Z,101048.69
2022-11-01T15:26:33.476Z,101054.91
2022-11-01T15:29:04.601Z,101061.84
2022-11-01T15:31:34.534Z,101062.84
2022-11-01T15:34:20.879Z,101058.00
2022-11-01T15:36:48.079Z,101067.78
2022-11-01T15:39:28.950Z,101066.22
2022-11-01T15:41:57.436Z,101062.97
2022-11-01T15:44:28.030Z,101063.88
2022-11-01T15:46:59.844Z,101057.59
2022-11-01T15:49:41.769Z,101067.69
2022-11-01T15:52:18.949Z,101065.28
2022-11-01T15:54:53.974Z,101063.84
2022-11-01T15:57:36.981Z,101063.31
2022-11-01T16:00:18.018Z,101059.31
2022-11-01T16:02:45.390Z,101063.94
2022-11-01T16:05:19.117Z,101058.94
2022-11-01T16:07:47.117Z,101057.34
2022-11-01T16:10:27.611Z,101058.50
2022-11-01T16:12:56.216Z,101066.66
2022-11-01T16:15:34.327Z,101064.13
2022-11-01T16:18:15.308Z,101071.84
2022-11-01T16:20:43.070Z,101063.56
2022-11-01T16:23:25.042Z,101082.75
2022-11-01T16:26:10.126Z,101084.63
2022-11-01T16:28:44.089Z,101075.19
2022-11-01T16:31:25.876Z,101077.66
2022-11-01T16:33:54.208Z,101086.63
2022-11-01T16:36:21.004Z,101095.06
2022-11-01T16:38:53.270Z,101103.53
2022-11-01T16:41:26.880Z,101098.50
2022-11-01T16:44:00.501Z,101092.59
2022-11-01T16:46:30.007Z,101096.63
2022-11-01T16:49:05.500Z,101093.59
2022-11-01T16:51:33.440Z,101100.88
2022-11-01T16:54:01.306Z,101093.44
2022-11-01T16:56:36.703Z,101102.16
2022-11-01T16:59:35.462Z,101112.28
2022-11-01T17:02:18.758Z,101105.72
2022-11-01T17:04:50.708Z,101104.56
2022-11-01T17:07:18.258Z,101114.09
2022-11-01T17:09:45.380Z,101112.66
2022-11-01T17:12:12.485Z,101105.66
2022-11-01T17:17:15.745Z,101118.78
2022-11-01T17:19:49.324Z,101110.34
2022-11-01T17:22:24.272Z,101116.59
2022-11-01T17:24:51.269Z,101119.63
2022-11-01T17:27:19.012Z,101115.59
2022-11-01T17:29:46.224Z,101116.25
2022-11-01T17:32:13.165Z,101109.97
2022-11-01T17:34:40.248Z,101111.97
2022-11-01T17:37:07.750Z,101108.50
2022-11-01T17:39:36.142Z,101107.72
2022-11-01T17:42:03.036Z,101105.81
2022-11-01T17:44:29.994Z,101107.19
2022-11-01T17:46:56.926Z,101112.56
2022-11-01T17:49:24.472Z,101114.94
2022-11-01T17:51:54.695Z,101116.44
2022-11-01T17:54:23.283Z,101102.09
2022-11-01T17:56:51.151Z,101116.91
2022-11-01T17:59:18.703Z,101117.16
2022-11-01T18:01:45.716Z,101115.56
2022-11-01T18:04:12.822Z,101115.56
2022-11-01T18:06:43.855Z,101118.69
2022-11-01T18:09:24.089Z,101120.41
2022-11-01T18:12:09.972Z,101122.81
2022-11-01T18:15:05.754Z,101132.53
2022-11-01T18:17:55.927Z,101128.13
2022-11-01T18:20:48.891Z,101132.94
2022-11-01T18:23:20.190Z,101132.22
2022-11-01T18:25:49.059Z,101137.88
2022-11-01T18:28:19.719Z,101147.13
2022-11-01T18:31:25.071Z,101141.94
2022-11-01T18:34:28.589Z,101140.38
2022-11-01T18:37:12.488Z,101146.22
2022-11-01T18:39:54.169Z,101145.47
2022-11-01T18:42:21.472Z,101144.28
2022-11-01T18:44:48.680Z,101137.94
2022-11-01T18:47:26.380Z,101147.53
2022-11-01T18:49:53.554Z,101139.22
2022-11-01T18:52:20.857Z,101144.69
2022-11-01T18:54:56.752Z,101143.34
2022-11-01T18:57:24.704Z,101149.00
2022-11-01T18:59:54.478Z,101144.47
2022-11-01T19:02:27.953Z,101153.19
2022-11-01T19:05:14.133Z,101152.66
2022-11-01T19:08:09.177Z,101149.41
2022-11-01T19:10:28.692Z,101153.44
2022-11-01T19:12:56.214Z,101148.63
2022-11-01T19:15:31.011Z,101161.09
2022-11-01T19:18:05.562Z,101146.78
2022-11-01T19:20:40.344Z,101155.66
2022-11-01T19:23:24.684Z,101166.50
2022-11-01T19:25:51.758Z,101160.34
2022-11-01T19:28:38.323Z,101161.88
2022-11-01T19:31:18.645Z,101168.28
2022-11-01T19:33:48.278Z,101165.97
2022-11-01T19:36:19.856Z,101163.38
2022-11-01T19:38:48.456Z,101165.63
2022-11-01T19:41:29.389Z,101164.78
2022-11-01T19:44:11.972Z,101162.56
2022-11-01T19:46:39.099Z,101158.41
2022-11-01T19:49:32.525Z,101152.84
2022-11-01T19:52:08.433Z,101157.66
2022-11-01T19:54:41.622Z,101162.34
2022-11-01T19:57:30.070Z,101156.47
2022-11-01T20:00:15.822Z,101157.84
2022-11-01T20:02:44.374Z,101166.97
2022-11-01T20:05:29.106Z,101162.94
2022-11-01T20:08:15.956Z,101164.78
2022-11-01T20:10:42.927Z,101163.94
2022-11-01T20:13:09.900Z,101163.06
2022-11-01T20:15:37.084Z,101169.59
2022-11-01T20:18:04.279Z,101158.16
2022-11-01T20:20:32.563Z,101158.53
2022-11-01T20:23:20.220Z,101160.25
2022-11-01T20:25:46.545Z,101167.66
2022-11-01T20:28:13.696Z,101169.50
2022-11-01T20:30:40.711Z,101172.59
2022-11-01T20:33:08.077Z,101174.56
2022-11-01T20:35:35.395Z,101176.81
2022-11-01T20:38:02.375Z,101166.81
2022-11-01T20:40:29.345Z,101176.06
2022-11-01T20:42:56.872Z,101164.50
2022-11-01T20:45:23.994Z,101173.59
2022-11-01T20:47:53.528Z,101163.88
2022-11-01T20:50:20.616Z,101183.66
2022-11-01T20:52:49.238Z,101175.81
2022-11-01T20:55:16.599Z,101165.84
2022-11-01T20:57:43.847Z,101175.66
2022-11-01T21:00:13.772Z,101175.06
2022-11-01T21:02:40.937Z,101171.75
2022-11-01T21:05:28.519Z,101177.03
2022-11-01T21:08:22.749Z,101175.06
2022-11-01T21:11:00.963Z,101181.59
2022-11-01T21:13:36.502Z,101180.72
2022-11-01T21:16:08.649Z,101164.16
2022-11-01T21:18:39.054Z,101174.00
2022-11-01T21:21:14.963Z,101180.50
2022-11-01T21:23:46.136Z,101174.38
2022-11-01T21:26:20.217Z,101163.03
2022-11-01T21:28:54.158Z,101153.72
2022-11-01T21:31:27.570Z,101165.41
2022-11-01T21:34:16.272Z,101168.22
2022-11-01T21:36:49.630Z,101166.03
2022-11-01T21:39:29.322Z,101166.88
2022-11-01T21:42:03.921Z,101160.75
2022-11-01T21:44:45.367Z,101171.81
2022-11-01T21:47:19.541Z,101160.00
2022-11-01T21:49:46.539Z,101149.31
2022-11-01T21:52:13.855Z,101158.50
2022-11-01T21:54:42.748Z,101157.66
2022-11-01T21:57:11.680Z,101156.94
2022-11-01T21:59:40.058Z,101161.72
2022-11-01T22:02:11.051Z,101152.88
2022-11-01T22:04:38.244Z,101147.47
2022-11-01T22:07:07.890Z,101151.88
2022-11-01T22:09:36.005Z,101146.75
2022-11-01T22:12:03.557Z,101153.63
2022-11-01T22:14:30.539Z,101148.22
2022-11-01T22:16:57.541Z,101146.59
2022-11-01T22:19:24.676Z,101139.38
2022-11-01T22:21:51.753Z,101144.16
2022-11-01T22:24:19.058Z,101151.41
2022-11-01T22:26:46.067Z,101144.16
2022-11-01T22:29:13.092Z,101142.31
2022-11-01T22:31:40.224Z,101142.44
2022-11-01T22:34:07.190Z,101131.88
2022-11-01T22:36:40.171Z,101132.00
2022-11-01T22:39:17.544Z,101135.69
2022-11-01T22:41:45.075Z,101137.91
2022-11-01T22:44:15.150Z,101125.75
2022-11-01T22:46:57.951Z,101113.34
2022-11-01T22:49:34.480Z,101132.72
2022-11-01T22:52:26.953Z,101121.66
2022-11-01T22:55:15.507Z,101132.25
2022-11-01T22:57:54.840Z,101125.47
2022-11-01T23:00:36.048Z,101124.72
2022-11-01T23:03:24.891Z,101126.72
2022-11-01T23:05:58.973Z,101126.72
2022-11-01T23:08:33.427Z,101127.78
2022-11-01T23:11:01.651Z,101120.69
2022-11-01T23:13:53.467Z,101125.34
2022-11-01T23:16:28.815Z,101122.03
2022-11-01T23:19:01.288Z,101115.75
2022-11-01T23:21:28.535Z,101109.63
2022-11-01T23:23:55.927Z,101117.84
2022-11-01T23:26:23.925Z,101109.09
2022-11-01T23:28:54.284Z,101108.13
2022-11-01T23:31:23.451Z,101099.16
2022-11-01T23:33:51.075Z,101103.59
2022-11-01T23:36:27.932Z,101099.81
2022-11-01T23:39:02.499Z,101095.25
2022-11-01T23:41:44.535Z,101090.59
2022-11-01T23:44:22.208Z,101093.16
2022-11-01T23:46:49.131Z,101088.63
2022-11-01T23:49:27.602Z,101082.22
2022-11-01T23:51:55.928Z,101079.44
2022-11-01T23:54:37.070Z,101083.84
2022-11-01T23:57:04.193Z,101077.09
2022-11-01T23:59:31.330Z,101082.50
